Time,TemperatureF,DewpointF,PressureIn,WindDirection,WindDirectionDegrees,WindSpeedMPH,WindSpeedGustMPH,Humidity,HourlyPrecipIn,Conditions,Clouds,dailyrainin,SoftwareType,DateUTC
2013-03-25 00:03:00,73.7,72.0,29.75,WNW,300,0.0,1.0,94,0.06,,,0.08,weatherlink.com 1.10,2013-03-25 04:03:00,
2013-03-25 00:18:00,73.7,72.0,29.75,WNW,297,0.0,1.0,94,0.06,,,0.08,weatherlink.com 1.10,2013-03-25 04:18:00,
2013-03-25 00:33:00,74.2,73.0,29.75,West,264,0.0,3.0,95,0.00,,,0.08,weatherlink.com 1.10,2013-03-25 04:33:00,
2013-03-25 00:48:00,74.4,73.0,29.75,ESE,118,0.0,2.0,95,0.00,,,0.08,weatherlink.com 1.10,2013-03-25 04:48:00,
2013-03-25 01:03:00,74.6,73.0,29.75,SSW,210,0.0,5.0,95,0.00,,,0.08,weatherlink.com 1.10,2013-03-25 05:03:00,
2013-03-25 01:18:00,74.9,73.0,29.74,WSW,240,1.0,4.0,94,0.00,,,0.08,weatherlink.com 1.10,2013-03-25 05:18:00,
2013-03-25 01:33:00,75.1,73.0,29.74,WNW,300,2.0,4.0,94,0.00,,,0.08,weatherlink.com 1.10,2013-03-25 05:33:00,
2013-03-25 01:48:00,75.2,73.0,29.74,West,260,0.0,5.0,94,0.00,,,0.08,weatherlink.com 1.10,2013-03-25 05:48:00,
2013-03-25 02:03:00,75.2,73.0,29.74,WNW,290,1.0,4.0,94,0.00,,,0.08,weatherlink.com 1.10,2013-03-25 06:03:00,
2013-03-25 02:18:00,75.3,74.0,29.74,SSW,209,0.0,3.0,94,0.00,,,0.08,weatherlink.com 1.10,2013-03-25 06:18:00,
2013-03-25 02:33:00,75.4,74.0,29.74,NW,316,2.0,4.0,94,0.00,,,0.08,weatherlink.com 1.10,2013-03-25 06:33:00,
2013-03-25 02:48:00,75.2,73.0,29.73,WSW,251,1.0,4.0,94,0.00,,,0.08,weatherlink.com 1.10,2013-03-25 06:48:00,
2013-03-25 03:03:00,75.1,73.0,29.73,West,261,2.0,6.0,94,0.00,,,0.08,weatherlink.com 1.10,2013-03-25 07:03:00,
2013-03-25 03:18:00,75.1,73.0,29.73,West,267,2.0,6.0,94,0.00,,,0.08,weatherlink.com 1.10,2013-03-25 07:18:00,
2013-03-25 03:33:00,74.9,73.0,29.73,SSW,211,1.0,3.0,94,0.00,,,0.08,weatherlink.com 1.10,2013-03-25 07:33:00,
2013-03-25 03:48:00,74.8,73.0,29.73,ENE,78,2.0,4.0,95,0.00,,,0.08,weatherlink.com 1.10,2013-03-25 07:48:00,
2013-03-25 04:03:00,74.6,73.0,29.73,WNW,293,3.0,4.0,95,0.00,,,0.08,weatherlink.com 1.10,2013-03-25 08:03:00,
2013-03-25 04:19:00,74.4,73.0,29.73,West,275,1.0,5.0,95,0.00,,,0.08,weatherlink.com 1.10,2013-03-25 08:19:00,
2013-03-25 04:34:00,74.3,73.0,29.73,West,276,1.0,5.0,95,0.00,,,0.08,weatherlink.com 1.10,2013-03-25 08:34:00,
2013-03-25 04:49:00,74.4,73.0,29.73,WNW,290,0.0,4.0,96,0.00,,,0.08,weatherlink.com 1.10,2013-03-25 08:49:00,
2013-03-25 05:04:00,74.2,73.0,29.73,West,263,1.0,5.0,96,0.00,,,0.08,weatherlink.com 1.10,2013-03-25 09:04:00,
2013-03-25 05:19:00,74.1,73.0,29.73,NW,325,1.0,6.0,96,0.00,,,0.08,weatherlink.com 1.10,2013-03-25 09:19:00,
2013-03-25 05:34:00,73.9,73.0,29.73,NNE,13,1.0,7.0,96,0.00,,,0.08,weatherlink.com 1.10,2013-03-25 09:34:00,
2013-03-25 05:49:00,73.7,73.0,29.73,WNW,301,1.0,5.0,96,0.00,,,0.08,weatherlink.com 1.10,2013-03-25 09:49:00,
2013-03-25 06:04:00,73.4,72.0,29.73,NW,312,0.0,3.0,96,0.00,,,0.08,weatherlink.com 1.10,2013-03-25 10:04:00,
2013-03-25 06:19:00,73.3,72.0,29.73,WNW,292,0.0,1.0,96,0.00,,,0.08,weatherlink.com 1.10,2013-03-25 10:19:00,
2013-03-25 06:34:00,73.1,72.0,29.73,ENE,71,0.0,1.0,97,0.00,,,0.08,weatherlink.com 1.10,2013-03-25 10:34:00,
2013-03-25 06:49:00,72.5,71.0,29.73,ENE,71,0.0,0.0,96,0.00,,,0.08,weatherlink.com 1.10,2013-03-25 10:49:00,
2013-03-25 07:04:00,72.6,71.0,29.75,ESE,108,0.0,0.0,96,0.00,,,0.08,weatherlink.com 1.10,2013-03-25 11:04:00,
2013-03-25 07:19:00,72.7,72.0,29.76,NW,311,0.0,1.0,97,0.00,,,0.08,weatherlink.com 1.10,2013-03-25 11:19:00,
2013-03-25 07:34:00,72.1,71.0,29.77,West,280,0.0,3.0,96,0.00,,,0.08,weatherlink.com 1.10,2013-03-25 11:34:00,
2013-03-25 07:49:00,71.2,69.0,29.77,WNW,297,0.0,7.0,92,0.00,,,0.08,weatherlink.com 1.10,2013-03-25 11:49:00,
2013-03-25 08:04:00,71.3,69.0,29.78,NNE,16,2.0,5.0,92,0.00,,,0.08,weatherlink.com 1.10,2013-03-25 12:04:00,
2013-03-25 08:19:00,71.3,69.0,29.81,West,271,0.0,3.0,91,0.00,,,0.08,weatherlink.com 1.10,2013-03-25 12:19:00,
2013-03-25 08:34:00,71.4,69.0,29.82,WNW,300,1.0,3.0,91,0.00,,,0.08,weatherlink.com 1.10,2013-03-25 12:34:00,
2013-03-25 08:49:00,70.9,68.0,29.83,South,187,2.0,5.0,90,0.00,,,0.08,weatherlink.com 1.10,2013-03-25 12:49:00,
2013-03-25 09:04:00,70.6,67.0,29.83,NNW,340,0.0,6.0,89,0.00,,,0.08,weatherlink.com 1.10,2013-03-25 13:04:00,
2013-03-25 09:19:00,71.4,68.0,29.84,NW,314,1.0,5.0,88,0.00,,,0.08,weatherlink.com 1.10,2013-03-25 13:19:00,
2013-03-25 09:34:00,72.0,68.0,29.84,NNE,20,2.0,2.0,87,0.00,,,0.08,weatherlink.com 1.10,2013-03-25 13:34:00,
2013-03-25 09:49:00,72.0,67.0,29.84,NE,37,2.0,9.0,85,0.00,,,0.08,weatherlink.com 1.10,2013-03-25 13:49:00,
2013-03-25 10:04:00,71.6,67.0,29.85,North,9,3.0,7.0,85,0.00,,,0.08,weatherlink.com 1.10,2013-03-25 14:04:00,
2013-03-25 10:19:00,72.5,67.0,29.85,WNW,297,2.0,9.0,82,0.00,,,0.08,weatherlink.com 1.10,2013-03-25 14:19:00,
2013-03-25 10:34:00,72.7,66.0,29.86,NW,311,1.0,9.0,79,0.00,,,0.08,weatherlink.com 1.10,2013-03-25 14:34:00,
2013-03-25 10:49:00,73.9,65.0,29.86,NE,53,0.0,9.0,74,0.00,,,0.08,weatherlink.com 1.10,2013-03-25 14:49:00,
2013-03-25 11:04:00,73.6,64.0,29.86,WSW,243,4.0,8.0,73,0.00,,,0.08,weatherlink.com 1.10,2013-03-25 15:04:00,
2013-03-25 11:19:00,74.0,66.0,29.86,NW,321,0.0,11.0,75,0.00,,,0.08,weatherlink.com 1.10,2013-03-25 15:19:00,
2013-03-25 11:34:00,74.2,65.0,29.86,NW,316,5.0,11.0,72,0.00,,,0.08,weatherlink.com 1.10,2013-03-25 15:34:00,
2013-03-25 11:49:00,74.3,64.0,29.86,NNE,29,2.0,10.0,71,0.00,,,0.08,weatherlink.com 1.10,2013-03-25 15:49:00,
2013-03-25 12:04:00,74.6,64.0,29.86,WNW,285,1.0,8.0,70,0.00,,,0.00,weatherlink.com 1.10,2013-03-25 16:04:00,
2013-03-25 12:19:00,74.8,63.0,29.86,WNW,297,3.0,12.0,67,0.00,,,0.00,weatherlink.com 1.10,2013-03-25 16:19:00,
2013-03-25 12:34:00,75.4,62.0,29.87,NNW,327,7.0,10.0,63,0.00,,,0.00,weatherlink.com 1.10,2013-03-25 16:34:00,
2013-03-25 12:49:00,75.9,61.0,29.86,WNW,291,3.0,13.0,61,0.00,,,0.00,weatherlink.com 1.10,2013-03-25 16:49:00,
2013-03-25 13:04:00,77.0,60.0,29.86,NNE,30,1.0,11.0,57,0.00,,,0.00,weatherlink.com 1.10,2013-03-25 17:04:00,
2013-03-25 13:20:00,76.5,59.0,29.86,ENE,75,2.0,11.0,55,0.00,,,0.00,weatherlink.com 1.10,2013-03-25 17:20:00,
2013-03-25 13:35:00,76.9,60.0,29.85,NNW,330,5.0,9.0,57,0.00,,,0.00,weatherlink.com 1.10,2013-03-25 17:35:00,
2013-03-25 13:50:00,76.8,54.0,29.86,NNW,330,5.0,14.0,46,0.00,,,0.00,weatherlink.com 1.10,2013-03-25 17:50:00,
2013-03-25 14:05:00,77.4,57.0,29.85,NW,319,6.0,8.0,49,0.00,,,0.00,weatherlink.com 1.10,2013-03-25 18:05:00,
2013-03-25 14:20:00,77.3,55.0,29.85,NNE,15,2.0,12.0,46,0.00,,,0.00,weatherlink.com 1.10,2013-03-25 18:20:00,
2013-03-25 14:35:00,77.8,54.0,29.84,NW,321,2.0,10.0,44,0.00,,,0.00,weatherlink.com 1.10,2013-03-25 18:35:00,
2013-03-25 14:50:00,77.5,57.0,29.84,NE,48,2.0,11.0,49,0.00,,,0.00,weatherlink.com 1.10,2013-03-25 18:50:00,
2013-03-25 15:05:00,77.8,55.0,29.85,NW,314,1.0,13.0,45,0.00,,,0.00,weatherlink.com 1.10,2013-03-25 19:05:00,
2013-03-25 15:20:00,77.7,56.0,29.84,ENE,58,0.0,10.0,47,0.00,,,0.00,weatherlink.com 1.10,2013-03-25 19:20:00,
2013-03-25 15:35:00,78.2,54.0,29.83,NW,321,3.0,8.0,44,0.00,,,0.00,weatherlink.com 1.10,2013-03-25 19:35:00,
2013-03-25 15:50:00,78.3,56.0,29.83,NNE,23,3.0,10.0,47,0.00,,,0.00,weatherlink.com 1.10,2013-03-25 19:50:00,
2013-03-25 16:05:00,77.4,56.0,29.83,South,187,2.0,9.0,48,0.00,,,0.00,weatherlink.com 1.10,2013-03-25 20:05:00,
2013-03-25 16:20:00,77.2,57.0,29.83,ENE,68,0.0,9.0,50,0.00,,,0.00,weatherlink.com 1.10,2013-03-25 20:20:00,
2013-03-25 16:35:00,77.6,55.0,29.83,NE,53,3.0,10.0,45,0.00,,,0.00,weatherlink.com 1.10,2013-03-25 20:35:00,
2013-03-25 16:50:00,76.2,53.0,29.83,NNE,19,2.0,9.0,45,0.00,,,0.00,weatherlink.com 1.10,2013-03-25 20:50:00,
2013-03-25 17:05:00,76.0,52.0,29.83,NNW,329,1.0,7.0,44,0.00,,,0.00,weatherlink.com 1.10,2013-03-25 21:05:00,
2013-03-25 17:20:00,76.4,52.0,29.84,NE,56,4.0,5.0,43,0.00,,,0.00,weatherlink.com 1.10,2013-03-25 21:20:00,
2013-03-25 17:35:00,75.4,52.0,29.85,NNW,330,2.0,8.0,44,0.00,,,0.00,weatherlink.com 1.10,2013-03-25 21:35:00,
2013-03-25 17:50:00,75.6,52.0,29.85,WNW,295,2.0,11.0,44,0.00,,,0.00,weatherlink.com 1.10,2013-03-25 21:50:00,
2013-03-25 18:05:00,76.6,52.0,29.85,NNW,333,0.0,7.0,43,0.00,,,0.00,weatherlink.com 1.10,2013-03-25 22:05:00,
2013-03-25 18:20:00,75.9,52.0,29.86,NW,325,1.0,6.0,44,0.00,,,0.00,weatherlink.com 1.10,2013-03-25 22:20:00,
2013-03-25 18:35:00,75.1,52.0,29.87,NE,34,1.0,6.0,44,0.00,,,0.00,weatherlink.com 1.10,2013-03-25 22:35:00,
2013-03-25 18:50:00,73.7,53.0,29.87,NNW,346,0.0,4.0,48,0.00,,,0.00,weatherlink.com 1.10,2013-03-25 22:50:00,
2013-03-25 19:05:00,74.3,52.0,29.87,NNW,338,2.0,4.0,46,0.00,,,0.00,weatherlink.com 1.10,2013-03-25 23:05:00,
2013-03-25 19:20:00,73.6,50.0,29.88,North,359,0.0,4.0,44,0.00,,,0.00,weatherlink.com 1.10,2013-03-25 23:20:00,
2013-03-25 19:35:00,72.3,51.0,29.89,ESE,103,1.0,2.0,47,0.00,,,0.00,weatherlink.com 1.10,2013-03-25 23:35:00,
2013-03-25 19:50:00,71.0,51.0,29.89,WNW,294,0.0,2.0,49,0.00,,,0.00,weatherlink.com 1.10,2013-03-25 23:50:00,
2013-03-25 20:05:00,70.6,51.0,29.90,WNW,300,1.0,1.0,51,0.00,,,0.00,weatherlink.com 1.10,2013-03-26 00:05:00,
2013-03-25 20:20:00,70.5,52.0,29.91,SE,129,0.0,2.0,52,0.00,,,0.00,weatherlink.com 1.10,2013-03-26 00:20:00,
2013-03-25 20:35:00,69.9,51.0,29.91,NW,323,0.0,2.0,52,0.00,,,0.00,weatherlink.com 1.10,2013-03-26 00:35:00,
2013-03-25 20:50:00,69.3,51.0,29.92,NW,323,0.0,3.0,53,0.00,,,0.00,weatherlink.com 1.10,2013-03-26 00:50:00,
2013-03-25 21:05:00,69.3,50.0,29.93,SE,129,2.0,4.0,50,0.00,,,0.00,weatherlink.com 1.10,2013-03-26 01:05:00,
2013-03-25 21:20:00,69.1,48.0,29.93,NW,310,2.0,5.0,47,0.00,,,0.00,weatherlink.com 1.10,2013-03-26 01:20:00,
2013-03-25 21:35:00,68.0,47.0,29.93,WNW,291,0.0,5.0,47,0.00,,,0.00,weatherlink.com 1.10,2013-03-26 01:35:00,
2013-03-25 21:50:00,66.8,48.0,29.94,ENE,71,0.0,1.0,51,0.00,,,0.00,weatherlink.com 1.10,2013-03-26 01:50:00,
2013-03-25 22:06:00,65.8,49.0,29.95,North,350,0.0,2.0,55,0.00,,,0.00,weatherlink.com 1.10,2013-03-26 02:06:00,
2013-03-25 22:21:00,64.8,49.0,29.95,NNE,16,0.0,4.0,57,0.00,,,0.00,weatherlink.com 1.10,2013-03-26 02:21:00,
2013-03-25 22:36:00,64.1,48.0,29.95,NW,321,0.0,2.0,57,0.00,,,0.00,weatherlink.com 1.10,2013-03-26 02:36:00,
2013-03-25 22:51:00,64.2,48.0,29.96,NW,319,0.0,3.0,56,0.00,,,0.00,weatherlink.com 1.10,2013-03-26 02:51:00,
2013-03-25 23:06:00,64.0,47.0,29.96,NW,325,1.0,5.0,54,0.00,,,0.00,weatherlink.com 1.10,2013-03-26 03:06:00,
2013-03-25 23:36:00,63.5,48.0,29.98,North,4,2.0,10.0,57,0.00,,,0.00,weatherlink.com 1.10,2013-03-26 03:36:00,
2013-03-25 23:51:00,63.3,46.0,29.98,ENE,58,0.0,6.0,54,0.00,,,0.00,weatherlink.com 1.10,2013-03-26 03:51:00,